Terminal Aerodrome Forecast
Issued by NWS Amarillo, TX

Home | Current Version | Previous Version | Text Only | Print | Product List | Glossary On
Versions: 1 2 3 4 5 6 7 8 9 10 11 12 13 14 15
445
FTUS44 KAMA 201120
TAFAMA
TAF
KAMA 201120Z 2012/2112 14018KT P6SM OVC060
     FM201400 14022G32KT P6SM SCT010 OVC040
     FM201700 14025G35KT P6SM VCSH OVC020
     FM202300 13020G30KT 3SM SHRA SCT009 OVC020
     FM210300 12015KT 5SM BR OVC009=

USA.gov is the U.S. government's official web portal to all federal, state and local government web resources and services.